ROAH Airport Information

Runway Information
Runway 18 Length 9840 ft width 150 ft
Elevation 11 ft Threshold 138 ft Heading 178
Runway 36 Length 9840 ft Width 150 ft
Elevation 9 ft Threshold 0 ft Heading 358
Airport Frequencies
Type A/G Name CENTRAL WE Frequency 126.9 MHZ
Type ATIS Name ATIS Frequency 127.8 MHZ
Type CLD Name CLNC DEL Frequency 122.075 MHZ
Type GND Name GND Frequency 121.8 MHZ
Type TWR Name TWR Frequency 118.1 MHZ
Airport Navaids
Type VORTAC Name Naha Frequency 116500 KHZ
Type NDB Name Okinawa Frequency 308 KHZ
Airport Weather Information & NOTAM
ADDS - METARS form results

(1740 UTC 07 December 2019)
Data provider http://aviationweather.gov/metar/data/
 
METAR text: ROAH 071730Z 02022KT 9999 VCSH FEW020 BKN035 17/11 Q1020 RMK 1CU020 7SC035 A3014
Conditions at: ROAH (NAHA (CIV/JASDF), JP) observed 1730 UTC 07 December 2019
Temperature: 17.0°C (63°F)
Dewpoint: 11.0°C (52°F) [RH = 68%]
Pressure (altimeter): 30.12 inches Hg (1020.0 mb)
Winds: from the NNE (20 degrees) at 25 MPH (22 knots; 11.3 m/s)
Visibility: 6 or more miles (10+ km)
Ceiling: 3500 feet AGL
Clouds: few clouds at 2000 feet AGL
broken clouds at 3500 feet AGL
Weather: VCSH  (showers in vicinity)

METAR text: ROAH 071702Z 02020G30KT 9999 -SHRA FEW020 BKN035 BKN060 17/12 Q1020 RMK 1CU020 6SC035 7SC060 A3015
Conditions at: ROAH (NAHA (CIV/JASDF), JP) observed 1702 UTC 07 December 2019
Temperature: 17.0°C (63°F)
Dewpoint: 12.0°C (54°F) [RH = 72%]
Pressure (altimeter): 30.12 inches Hg (1020.0 mb)
Winds: from the NNE (20 degrees) at 23 MPH (20 knots; 10.3 m/s)
gusting to 34 MPH (30 knots; 15.4 m/s)
Visibility: 6 or more miles (10+ km)
Ceiling: 3500 feet AGL
Clouds: few clouds at 2000 feet AGL
broken clouds at 3500 feet AGL
broken clouds at 6000 feet AGL
Weather: -SHRA  (light rain showers)

METAR text: ROAH 071700Z 02020KT 9999 -SHRA FEW020 BKN035 BKN060 17/12 Q1020 RMK 1CU020 6SC035 7SC060 A3015
Conditions at: ROAH (NAHA (CIV/JASDF), JP) observed 1700 UTC 07 December 2019
Temperature: 17.0°C (63°F)
Dewpoint: 12.0°C (54°F) [RH = 72%]
Pressure (altimeter): 30.12 inches Hg (1020.0 mb)
Winds: from the NNE (20 degrees) at 23 MPH (20 knots; 10.3 m/s)
Visibility: 6 or more miles (10+ km)
Ceiling: 3500 feet AGL
Clouds: few clouds at 2000 feet AGL
broken clouds at 3500 feet AGL
broken clouds at 6000 feet AGL
Weather: -SHRA  (light rain showers)

METAR text: ROAH 071645Z 04015G25KT 9999 -SHRA FEW020 BKN035 BKN060 17/13 Q1021 RMK 1CU020 6SC035 7SC060 A3015
Conditions at: ROAH (NAHA (CIV/JASDF), JP) observed 1645 UTC 07 December 2019
Temperature: 17.0°C (63°F)
Dewpoint: 13.0°C (55°F) [RH = 77%]
Pressure (altimeter): 30.15 inches Hg (1021.0 mb)
Winds: from the NE (40 degrees) at 17 MPH (15 knots; 7.7 m/s)
gusting to 29 MPH (25 knots; 12.9 m/s)
Visibility: 6 or more miles (10+ km)
Ceiling: 3500 feet AGL
Clouds: few clouds at 2000 feet AGL
broken clouds at 3500 feet AGL
broken clouds at 6000 feet AGL
Weather: -SHRA  (light rain showers)

Forecast for: ROAH (NAHA (CIV/JASDF), JP)
Text: TAF ROAH 071706Z 0718/0900 02019KT 9999 FEW020 BKN045
Forecast period: 1800 UTC 07 December 2019 to 0000 UTC 09 December 2019
Forecast type: FROM: standard forecast or significant change
Winds: from the NNE (20 degrees) at 22 MPH (19 knots; 9.8 m/s)
Visibility: 6 or more miles 10+ km)
Ceiling: 4500 feet AGL
Clouds: few clouds at 2000 feet AGL
broken clouds at 4500 feet AGL
Weather: no significant weather forecast for this period
Text: TEMPO 0718/0721 02022G32KT
Forecast period: 1800 to 2100 UTC 07 December 2019
Forecast type: TEMPORARY: The following changes expected for less than half the time period
Winds: from the NNE (20 degrees) at 25 MPH (22 knots; 11.3 m/s)
gusting to 37 MPH (32 knots; 16.5 m/s)
Visibility: missing
Ceiling: unknown
Clouds: missing
Weather: no significant weather forecast for this period